Kalispell, MT

8:06 AM MDT on August 21, 2014 (GMT -0600)
Mullan Pass | Change Station
CLOSE
Current Station
Airport
Location: Mullan Pass,
Elevation: 6073 ft
Nearby Weather Stations

Elev 6073 ft 47.45 °N, 115.67 °W | Updated 13 minutes ago

Clear
Clear
50 °F
Feels Like 50 °F
N
5
Wind Variable Wind from Variable

Today
High -- | Low -- °F
--% Chance of Precip.
Yesterday
High -- | Low -- °F
Precip. -- in
6:39 AM 8:39 PM
Waning Crescent, 14% visible
Pressure 29.86 in
Visibility 10.0 miles
Clouds Clear
Dew Point 46 °F
Humidity 86%
Rainfall 0.00 in
Snow Depth Not available.
UV 1 out of 12
Pollen 3.70 out of 12
Air Quality Not available.
Flu Activity Not available.
METAR KMLP 211353Z AUTO VRB04KT 10SM CLR 10/08 A3008 RMK AO2 SLP110 T01000078

More Conditions Fewer Conditions

Pressure 29.86 in
Visibility 10.0 miles
Clouds Clear
Dew Point 46 °F
Humidity 86%
Rainfall 0.00 in
Snow Depth Not available.
UV 1 out of 12
Pollen 3.70 out of 12
Air Quality Not available.
Flu Activity Not available.
METAR KMLP 211353Z AUTO VRB04KT 10SM CLR 10/08 A3008 RMK AO2 SLP110 T01000078

More Conditions Fewer Conditions

10-Day Weather Forecast

Almanac

Astronomy

Aug. 21, 2014 Rise Set
Actual Time 6:39 AM MDT 8:39 PM MDT
Civil Twilight 6:06 AM MDT 9:13 PM MDT
Nautical Twilight 5:24 AM MDT 9:54 PM MDT
Astronomical Twilight 4:38 AM MDT 10:40 PM MDT
Moon 3:05 AM MDT 6:17 PM MDT
Length of Visible Light 15h 06m
Length of Day
13h 59m
Tomorrow will be 3m 16s shorter.
Waning Crescent, 14% of the Moon is Illuminated
Today
Waning Crescent
Aug 25
New
Sep 2
First Quarter
Sep 8
Full
Sep 15
Last Quarter

Today's Extremes

State Highs State Lows

Community

WunderPhotos

Upload Photos

1,745,925 photos uploaded!

WunderBlogs® & News

Nearby

Snow Depth

Station Depth Elevation
Emery Creek 0 in 4350 ft
Hand Creek 0 in 5035 ft
Many Glacier 0 in 4900 ft
Badger Pass 0 in 6900 ft
Kraft Creek 0 in 4750 ft

Earthquake Activity

City Distance Mag. Time & Date
No recent earthquake activity has been reported nearby.
Minimum magnitude displayed is 2.5.

Coastal Water Temperatures

Place Temperature
No Stations Reporting

Nearby Weather Stations